createdAt,value
2022-09-12T00:00:28.689Z,12.30
2022-09-12T00:03:31.872Z,12.30
2022-09-12T00:06:37.863Z,12.40
2022-09-12T00:09:41.633Z,13.00
2022-09-12T00:12:44.852Z,13.13
2022-09-12T00:15:48.151Z,13.35
2022-09-12T00:18:53.605Z,14.43
2022-09-12T00:21:58.163Z,13.18
2022-09-12T00:25:01.672Z,13.95
2022-09-12T00:28:04.898Z,13.30
2022-09-12T00:31:10.190Z,13.50
2022-09-12T00:34:14.084Z,14.13
2022-09-12T00:37:18.683Z,15.70
2022-09-12T00:40:21.834Z,16.58
2022-09-12T00:43:37.532Z,17.45
2022-09-12T00:46:45.215Z,19.27
2022-09-12T00:49:53.099Z,21.52
2022-09-12T00:53:01.283Z,21.65
2022-09-12T00:56:04.627Z,21.40
2022-09-12T00:59:14.140Z,22.17
2022-09-12T01:02:18.310Z,22.77
2022-09-12T01:05:22.309Z,22.35
2022-09-12T01:08:28.445Z,20.73
2022-09-12T01:11:33.393Z,19.17
2022-09-12T01:14:36.941Z,19.17
2022-09-12T01:17:52.340Z,18.90
2022-09-12T01:35:53.871Z,16.92
2022-09-12T01:58:13.369Z,18.00
2022-09-12T02:20:49.617Z,18.52
2022-09-12T02:23:57.232Z,18.60
2022-09-12T02:27:06.002Z,17.42
2022-09-12T02:30:10.790Z,18.60
2022-09-12T02:33:21.800Z,18.17
2022-09-12T02:36:35.585Z,16.75
2022-09-12T02:39:43.255Z,16.25
2022-09-12T02:42:48.382Z,12.77
2022-09-12T02:45:51.980Z,17.45
2022-09-12T02:48:58.743Z,17.42
2022-09-12T02:52:03.503Z,16.70
2022-09-12T02:55:08.043Z,18.58
2022-09-12T02:58:15.799Z,18.98
2022-09-12T03:01:34.733Z,19.42
2022-09-12T03:05:13.905Z,19.33
2022-09-12T03:08:39.097Z,18.50
2022-09-12T03:12:04.451Z,19.20
2022-09-12T03:15:20.682Z,17.85
2022-09-12T03:18:37.078Z,17.25
2022-09-12T03:21:51.868Z,17.23
2022-09-12T03:25:06.964Z,18.38
2022-09-12T03:28:12.792Z,16.25
2022-09-12T03:31:17.413Z,16.35
2022-09-12T03:34:21.538Z,14.90
2022-09-12T03:37:24.767Z,15.07
2022-09-12T03:40:29.473Z,14.05
2022-09-12T03:43:32.834Z,13.93
2022-09-12T03:46:36.704Z,13.32
2022-09-12T03:49:40.048Z,13.73
2022-09-12T03:52:43.339Z,12.43
2022-09-12T03:55:48.118Z,13.18
2022-09-12T03:58:51.402Z,12.77
2022-09-12T04:01:54.702Z,12.50
2022-09-12T04:04:58.005Z,11.65
2022-09-12T04:08:01.427Z,12.00
2022-09-12T04:11:07.878Z,11.88
2022-09-12T04:14:11.468Z,12.23
2022-09-12T04:17:15.198Z,11.85
2022-09-12T04:20:19.226Z,11.13
2022-09-12T04:23:22.470Z,10.88
2022-09-12T04:26:29.770Z,11.48
2022-09-12T04:29:33.054Z,10.30
2022-09-12T04:32:36.488Z,9.95
2022-09-12T04:35:39.727Z,8.88
2022-09-12T04:38:43.193Z,8.90
2022-09-12T04:41:47.823Z,8.60
2022-09-12T04:44:51.247Z,7.50
2022-09-12T04:47:54.604Z,7.65
2022-09-12T04:50:57.906Z,7.57
2022-09-12T04:54:03.079Z,8.15
2022-09-12T04:57:08.194Z,8.80
2022-09-12T05:00:14.491Z,8.25
2022-09-12T05:03:18.070Z,8.80
2022-09-12T05:06:22.770Z,8.98
2022-09-12T05:09:26.206Z,8.80
2022-09-12T05:12:32.472Z,9.98
2022-09-12T05:15:35.765Z,9.13
2022-09-12T05:18:40.233Z,10.15
2022-09-12T05:21:43.600Z,8.60
2022-09-12T05:24:50.552Z,8.55
2022-09-12T05:27:56.119Z,9.68
2022-09-12T05:31:04.024Z,8.75
2022-09-12T05:34:09.109Z,8.80
2022-09-12T05:37:13.007Z,9.85
2022-09-12T05:40:19.312Z,9.88
2022-09-12T05:43:24.147Z,10.63
2022-09-12T05:46:29.399Z,9.15
2022-09-12T05:49:32.786Z,9.50
2022-09-12T05:52:36.034Z,9.65
2022-09-12T05:55:39.267Z,8.48
2022-09-12T05:58:45.714Z,9.48
2022-09-12T06:01:49.765Z,9.32
2022-09-12T06:04:52.998Z,8.57
2022-09-12T06:07:56.577Z,9.32
2022-09-12T06:11:27.996Z,8.88
2022-09-12T06:17:56.565Z,9.20
2022-09-12T06:21:03.353Z,8.77
2022-09-12T06:27:53.751Z,8.15
2022-09-12T06:31:04.494Z,8.20
2022-09-12T06:34:09.710Z,10.60
2022-09-12T06:37:13.262Z,7.50
2022-09-12T06:41:18.246Z,7.38
2022-09-12T06:53:04.551Z,7.32
2022-09-12T06:57:26.116Z,7.80
2022-09-12T07:11:44.513Z,9.07
2022-09-12T07:14:50.920Z,8.60
2022-09-12T07:17:54.369Z,8.63
2022-09-12T07:20:57.584Z,8.45
2022-09-12T07:24:00.883Z,8.70
2022-09-12T07:27:05.590Z,9.15
2022-09-12T07:30:09.325Z,8.90
2022-09-12T07:33:12.614Z,9.45
2022-09-12T07:36:17.999Z,9.30
2022-09-12T07:39:21.216Z,8.90
2022-09-12T07:42:25.825Z,8.98
2022-09-12T07:45:29.699Z,9.13
2022-09-12T07:48:33.899Z,9.07
2022-09-12T07:51:37.406Z,8.55
2022-09-12T07:54:40.665Z,9.35
2022-09-12T07:57:45.319Z,9.65
2022-09-12T08:00:48.472Z,9.48
2022-09-12T08:03:55.577Z,9.82
2022-09-12T08:06:58.746Z,9.73
2022-09-12T08:10:01.913Z,9.82
2022-09-12T08:13:08.780Z,9.55
2022-09-12T08:16:15.840Z,9.25
2022-09-12T08:19:19.614Z,8.98
2022-09-12T08:22:22.860Z,8.80
2022-09-12T08:25:26.089Z,8.48
2022-09-12T08:28:31.601Z,8.98
2022-09-12T08:31:36.614Z,8.63
2022-09-12T08:34:39.970Z,8.15
2022-09-12T08:37:43.283Z,9.05
2022-09-12T08:40:53.401Z,8.50
2022-09-12T08:44:30.498Z,8.98
2022-09-12T08:47:37.540Z,8.45
2022-09-12T08:50:49.233Z,8.23
2022-09-12T08:53:56.664Z,8.65
2022-09-12T08:57:03.964Z,8.40
2022-09-12T09:00:15.801Z,8.25
2022-09-12T09:04:06.712Z,7.85
2022-09-12T09:07:35.127Z,7.30
2022-09-12T09:10:48.827Z,8.63
2022-09-12T09:14:20.823Z,8.50
2022-09-12T09:17:31.073Z,8.35
2022-09-12T09:20:40.087Z,8.57
2022-09-12T09:23:46.935Z,8.65
2022-09-12T09:26:54.592Z,8.65
2022-09-12T09:29:57.942Z,8.85
2022-09-12T09:33:04.861Z,8.68
2022-09-12T09:36:18.365Z,9.02
2022-09-12T09:39:35.768Z,8.20
2022-09-12T09:42:54.574Z,8.50
2022-09-12T09:46:00.444Z,8.57
2022-09-12T09:49:06.981Z,7.82
2022-09-12T09:52:14.674Z,7.57
2022-09-12T09:55:26.685Z,7.97
2022-09-12T09:58:31.589Z,7.80
2022-09-12T10:01:35.604Z,9.70
2022-09-12T10:04:42.295Z,8.10
2022-09-12T10:07:51.946Z,26.15
2022-09-12T10:10:57.465Z,6.75
2022-09-12T10:14:01.722Z,8.50
2022-09-12T10:17:26.006Z,9.85
2022-09-12T10:20:36.326Z,7.78
2022-09-12T10:23:41.192Z,8.30
2022-09-12T10:26:52.248Z,8.13
2022-09-12T10:30:03.224Z,8.70
2022-09-12T10:33:12.706Z,7.95
2022-09-12T10:36:17.500Z,7.23
2022-09-12T10:39:21.285Z,6.63
2022-09-12T10:42:49.029Z,6.30
2022-09-12T10:45:52.245Z,6.90
2022-09-12T10:49:14.764Z,6.97
2022-09-12T10:52:24.201Z,5.97
2022-09-12T10:55:34.869Z,6.40
2022-09-12T10:58:51.974Z,6.15
2022-09-12T11:02:02.148Z,5.65
2022-09-12T11:05:12.389Z,5.60
2022-09-12T11:08:29.741Z,5.80
2022-09-12T11:11:47.538Z,5.32
2022-09-12T11:15:00.454Z,5.10
2022-09-12T11:18:15.067Z,5.85
2022-09-12T11:21:34.874Z,5.82
2022-09-12T11:25:08.145Z,5.82
2022-09-12T11:28:31.867Z,5.90
2022-09-12T11:31:56.100Z,6.13
2022-09-12T11:35:09.879Z,5.57
2022-09-12T11:38:38.264Z,5.88
2022-09-12T11:41:45.179Z,5.63
2022-09-12T11:44:54.618Z,5.63
2022-09-12T11:48:05.360Z,6.30
2022-09-12T11:51:20.989Z,5.78
2022-09-12T11:54:30.677Z,6.07
2022-09-12T11:57:42.108Z,4.72
2022-09-12T12:00:49.029Z,5.95
2022-09-12T12:03:55.511Z,5.57
2022-09-12T12:07:04.305Z,6.15
2022-09-12T12:10:09.676Z,5.88
2022-09-12T12:13:22.636Z,6.88
2022-09-12T12:16:29.052Z,6.82
2022-09-12T12:19:35.715Z,7.00
2022-09-12T12:22:39.239Z,7.03
2022-09-12T12:25:53.177Z,6.97
2022-09-12T12:29:01.647Z,7.75
2022-09-12T12:32:24.678Z,6.40
2022-09-12T12:35:43.179Z,6.47
2022-09-12T12:38:46.637Z,6.22
2022-09-12T12:41:50.018Z,6.32
2022-09-12T12:44:54.651Z,6.22
2022-09-12T12:48:03.177Z,5.88
2022-09-12T12:51:30.570Z,5.65
2022-09-12T12:54:55.938Z,5.97
2022-09-12T12:58:00.235Z,5.82
2022-09-12T13:01:12.706Z,6.20
2022-09-12T13:04:19.281Z,5.88
2022-09-12T13:07:35.675Z,5.55
2022-09-12T13:10:39.932Z,5.80
2022-09-12T13:13:51.371Z,6.80
2022-09-12T13:20:27.815Z,8.02
2022-09-12T13:23:33.979Z,9.85
2022-09-12T13:26:43.749Z,9.45
2022-09-12T13:29:47.079Z,9.27
2022-09-12T13:32:51.800Z,9.93
2022-09-12T13:36:17.599Z,9.77
2022-09-12T13:39:22.449Z,10.07
2022-09-12T13:42:45.723Z,10.52
2022-09-12T13:45:49.807Z,11.27
2022-09-12T13:48:54.823Z,14.38
2022-09-12T13:52:02.783Z,11.73
2022-09-12T13:55:09.767Z,9.77
2022-09-12T13:58:23.812Z,10.82
2022-09-12T14:01:39.654Z,10.95
2022-09-12T14:05:05.947Z,9.52
2022-09-12T14:08:13.577Z,8.95
2022-09-12T14:11:26.491Z,8.95
2022-09-12T14:14:33.888Z,8.93
2022-09-12T14:17:39.392Z,9.18
2022-09-12T14:20:45.415Z,10.55
2022-09-12T14:23:50.332Z,10.05
2022-09-12T14:26:56.705Z,9.55
2022-09-12T14:30:03.829Z,9.55
2022-09-12T14:33:20.135Z,10.05
2022-09-12T14:36:27.905Z,10.00
2022-09-12T14:39:34.827Z,10.10
2022-09-12T14:42:38.794Z,15.50
2022-09-12T14:45:42.327Z,10.55
2022-09-12T14:49:15.642Z,11.18
2022-09-12T14:57:10.996Z,9.98
2022-09-12T15:02:10.526Z,9.95
2022-09-12T15:04:51.349Z,10.73
2022-09-12T15:08:35.635Z,10.82
2022-09-12T15:12:39.146Z,11.23
2022-09-12T15:31:12.886Z,10.45
2022-09-12T15:34:18.443Z,10.45
2022-09-12T15:37:25.551Z,11.27
2022-09-12T15:40:33.619Z,10.52
2022-09-12T15:43:39.444Z,12.03
2022-09-12T15:47:05.681Z,10.00
2022-09-12T15:50:12.521Z,10.75
2022-09-12T15:53:23.527Z,10.38
2022-09-12T15:56:29.380Z,10.27
2022-09-12T15:59:35.681Z,10.32
2022-09-12T16:02:41.189Z,10.90
2022-09-12T16:05:45.658Z,11.77
2022-09-12T16:08:49.626Z,12.20
2022-09-12T16:11:56.604Z,14.77
2022-09-12T16:15:00.492Z,15.88
2022-09-12T16:18:10.135Z,16.80
2022-09-12T16:21:29.315Z,16.65
2022-09-12T16:24:40.685Z,17.27
2022-09-12T16:27:46.184Z,19.77
2022-09-12T16:31:04.784Z,20.92
2022-09-12T16:34:19.211Z,55.72
2022-09-12T16:37:39.367Z,21.98
2022-09-12T16:41:03.100Z,16.95
2022-09-12T16:44:08.433Z,15.68
2022-09-12T16:47:15.264Z,16.60
2022-09-12T16:50:24.874Z,15.80
2022-09-12T16:53:31.033Z,14.02
2022-09-12T16:56:39.510Z,10.73
2022-09-12T16:59:52.606Z,10.13
2022-09-12T17:02:59.571Z,10.65
2022-09-12T17:06:23.808Z,11.07
2022-09-12T17:09:38.963Z,11.23
2022-09-12T17:12:43.574Z,12.48
2022-09-12T17:15:49.795Z,12.15
2022-09-12T17:18:55.918Z,12.85
2022-09-12T17:22:06.120Z,14.43
2022-09-12T17:25:13.950Z,17.27
2022-09-12T17:28:34.869Z,16.48
2022-09-12T17:32:07.729Z,19.15
2022-09-12T17:35:35.101Z,20.35
2022-09-12T17:38:44.289Z,20.38
2022-09-12T17:41:51.312Z,20.73
2022-09-12T17:44:58.402Z,21.75
2022-09-12T17:48:04.052Z,21.92
2022-09-12T17:51:12.404Z,45.88
2022-09-12T17:54:21.142Z,26.88
2022-09-12T17:57:25.307Z,24.75
2022-09-12T18:00:44.058Z,21.38
2022-09-12T18:03:48.196Z,19.55
2022-09-12T18:06:52.911Z,18.80
2022-09-12T18:09:58.769Z,19.42
2022-09-12T18:13:02.577Z,19.75
2022-09-12T18:16:08.379Z,18.58
2022-09-12T18:19:12.965Z,18.75
2022-09-12T18:22:17.726Z,18.00
2022-09-12T18:25:23.140Z,18.15
2022-09-12T18:28:29.021Z,17.58
2022-09-12T18:31:33.010Z,18.35
2022-09-12T18:34:36.939Z,20.50
2022-09-12T18:37:43.107Z,17.60
2022-09-12T18:40:49.638Z,16.42
2022-09-12T18:43:56.983Z,16.95
2022-09-12T18:47:04.554Z,16.95
2022-09-12T18:50:09.286Z,17.27
2022-09-12T18:53:13.352Z,16.83
2022-09-12T18:56:19.159Z,17.23
2022-09-12T18:59:24.328Z,18.70
2022-09-12T19:02:29.859Z,17.90
2022-09-12T19:05:35.512Z,19.17
2022-09-12T19:08:39.926Z,55.75
2022-09-12T19:11:50.189Z,23.73
2022-09-12T19:17:57.539Z,18.20
2022-09-12T19:21:01.847Z,18.02
2022-09-12T19:24:10.111Z,18.92
2022-09-12T19:27:16.236Z,20.58
2022-09-12T19:30:20.099Z,19.85
2022-09-12T19:33:24.534Z,19.83
2022-09-12T19:36:44.376Z,17.55
2022-09-12T19:39:49.783Z,19.48
2022-09-12T19:42:55.112Z,19.08
2022-09-12T19:45:59.538Z,17.92
2022-09-12T19:49:04.672Z,17.98
2022-09-12T19:52:08.471Z,17.55
2022-09-12T19:55:11.928Z,17.92
2022-09-12T19:58:16.840Z,17.30
2022-09-12T20:01:24.952Z,16.85
2022-09-12T20:04:28.826Z,16.48
2022-09-12T20:07:32.452Z,17.63
2022-09-12T20:10:36.309Z,18.23
2022-09-12T20:13:41.393Z,17.13
2022-09-12T20:16:45.620Z,16.88
2022-09-12T20:19:49.724Z,16.42
2022-09-12T20:22:53.648Z,16.33
2022-09-12T20:26:01.533Z,16.65
2022-09-12T20:29:07.597Z,15.68
2022-09-12T20:32:11.434Z,16.48
2022-09-12T20:35:14.975Z,16.77
2022-09-12T20:38:18.308Z,17.63
2022-09-12T20:41:22.664Z,17.33
2022-09-12T20:44:27.545Z,18.40
2022-09-12T20:47:30.761Z,18.27
2022-09-12T20:50:34.155Z,18.95
2022-09-12T20:53:37.530Z,19.75
2022-09-12T20:56:41.049Z,19.38
2022-09-12T20:59:45.625Z,19.08
2022-09-12T21:02:50.886Z,18.42
2022-09-12T21:05:54.498Z,18.17
2022-09-12T21:09:00.674Z,19.00
2022-09-12T21:12:04.476Z,19.65
2022-09-12T21:15:10.715Z,19.15
2022-09-12T21:18:14.139Z,19.95
2022-09-12T21:21:17.650Z,19.40
2022-09-12T21:24:21.122Z,19.40
2022-09-12T21:27:24.762Z,19.15
2022-09-12T21:30:29.798Z,19.73
2022-09-12T21:33:33.033Z,19.90
2022-09-12T21:36:36.295Z,18.10
2022-09-12T21:39:39.592Z,18.10
2022-09-12T21:42:43.215Z,17.98
2022-09-12T21:45:48.393Z,18.33
2022-09-12T21:48:51.635Z,18.40
2022-09-12T21:51:55.100Z,19.42
2022-09-12T21:54:58.469Z,18.83
2022-09-12T21:58:01.878Z,18.25
2022-09-12T22:01:09.412Z,17.80
2022-09-12T22:04:13.156Z,21.17
2022-09-12T22:07:16.450Z,19.05
2022-09-12T22:10:19.931Z,18.55
2022-09-12T22:13:23.229Z,20.60
2022-09-12T22:16:28.013Z,22.30
2022-09-12T22:19:31.262Z,20.73
2022-09-12T22:22:54.058Z,21.85
2022-09-12T22:25:57.690Z,21.20
2022-09-12T22:29:00.953Z,23.50
2022-09-12T22:32:05.927Z,25.20
2022-09-12T22:35:09.790Z,25.10
2022-09-12T22:38:13.303Z,28.55
2022-09-12T22:41:16.639Z,26.17
2022-09-12T22:44:20.846Z,27.67
2022-09-12T22:47:25.472Z,29.30
2022-09-12T22:50:29.141Z,26.70
2022-09-12T22:53:32.740Z,28.17
2022-09-12T22:56:36.105Z,32.33
2022-09-12T22:59:39.557Z,32.50
2022-09-12T23:02:44.088Z,33.35
2022-09-12T23:05:48.306Z,33.63
2022-09-12T23:08:51.891Z,35.40
2022-09-12T23:11:55.131Z,32.25
2022-09-12T23:14:58.488Z,34.80
2022-09-12T23:18:05.031Z,30.70
2022-09-12T23:21:10.347Z,33.85
2022-09-12T23:24:13.714Z,33.35
2022-09-12T23:27:16.929Z,34.40
2022-09-12T23:30:21.443Z,36.33
2022-09-12T23:33:26.787Z,35.40
2022-09-12T23:36:30.548Z,35.65
2022-09-12T23:39:34.286Z,36.45
2022-09-12T23:42:37.491Z,35.08
2022-09-12T23:45:40.771Z,35.40
2022-09-12T23:48:45.657Z,33.17
2022-09-12T23:51:49.113Z,34.13
2022-09-12T23:54:52.273Z,32.95
2022-09-12T23:57:55.428Z,32.13
